createdAt,value
2022-10-28T00:00:51.770Z,0
2022-10-28T00:05:34.084Z,0
2022-10-28T00:10:16.392Z,0
2022-10-28T00:14:58.606Z,0
2022-10-28T00:24:23.232Z,0
2022-10-28T00:29:04.539Z,0
2022-10-28T00:33:46.754Z,0
2022-10-28T00:38:28.061Z,0
2022-10-28T00:43:10.372Z,0
2022-10-28T00:47:52.685Z,0
2022-10-28T00:52:34.897Z,0
2022-10-28T00:57:17.207Z,0
2022-10-28T01:01:59.585Z,0
2022-10-28T01:11:24.043Z,0
2022-10-28T01:16:06.414Z,0
2022-10-28T01:20:48.562Z,0
2022-10-28T01:25:30.883Z,0
2022-10-28T01:30:13.185Z,0
2022-10-28T01:34:55.502Z,0
2022-10-28T01:39:36.708Z,0
2022-10-28T01:49:01.334Z,0
2022-10-28T01:53:42.647Z,0
2022-10-28T01:58:23.955Z,0
2022-10-28T02:03:06.167Z,0
2022-10-28T02:07:48.474Z,0
2022-10-28T02:12:30.806Z,0
2022-10-28T02:17:12.999Z,0
2022-10-28T02:21:55.309Z,0
2022-10-28T02:26:37.624Z,0
2022-10-28T02:31:19.844Z,0
2022-10-28T02:36:02.145Z,0
2022-10-28T02:45:26.671Z,0
2022-10-28T02:50:08.983Z,0
2022-10-28T02:54:51.304Z,0
2022-10-28T02:59:32.606Z,0
2022-10-28T03:04:14.817Z,0
2022-10-28T03:08:57.130Z,0
2022-10-28T03:13:39.458Z,0
2022-10-28T03:23:04.008Z,0
2022-10-28T03:32:28.490Z,0
2022-10-28T03:37:10.800Z,0
2022-10-28T03:41:53.110Z,0
2022-10-28T03:46:35.327Z,0
2022-10-28T03:51:17.640Z,0
2022-10-28T03:55:59.947Z,0
2022-10-28T04:00:41.275Z,0
2022-10-28T04:05:23.532Z,0
2022-10-28T04:10:05.783Z,0
2022-10-28T04:19:30.314Z,0
2022-10-28T04:28:54.930Z,0
2022-10-28T04:33:37.142Z,0
2022-10-28T04:38:19.456Z,0
2022-10-28T04:43:01.763Z,0
2022-10-28T04:47:44.086Z,0
2022-10-28T04:57:08.600Z,0
2022-10-28T05:01:49.911Z,0
2022-10-28T05:06:32.124Z,0
2022-10-28T05:15:56.746Z,0
2022-10-28T05:20:39.005Z,0
2022-10-28T05:25:21.271Z,0
2022-10-28T05:30:03.579Z,0
2022-10-28T05:34:45.813Z,0
2022-10-28T05:39:28.101Z,0
2022-10-28T05:44:10.436Z,0
2022-10-28T05:48:52.727Z,5
2022-10-28T05:53:34.987Z,5
2022-10-28T05:58:17.251Z,11
2022-10-28T06:02:59.562Z,16
2022-10-28T06:07:40.848Z,16
2022-10-28T06:12:21.548Z,22
2022-10-28T06:17:03.931Z,33
2022-10-28T06:21:46.126Z,50
2022-10-28T06:26:28.447Z,67
2022-10-28T06:31:10.714Z,73
2022-10-28T06:40:34.245Z,78
2022-10-28T06:45:15.567Z,90
2022-10-28T06:49:59.388Z,84
2022-10-28T06:54:40.705Z,67
2022-10-28T06:59:23.014Z,50
2022-10-28T07:04:04.331Z,50
2022-10-28T07:08:46.547Z,50
2022-10-28T07:13:28.859Z,39
2022-10-28T07:18:11.242Z,39
2022-10-28T07:22:53.394Z,50
2022-10-28T07:27:35.716Z,84
2022-10-28T07:32:18.021Z,112
2022-10-28T07:37:00.235Z,146
2022-10-28T07:41:42.555Z,135
2022-10-28T07:46:24.918Z,73
2022-10-28T07:51:06.199Z,101
2022-10-28T07:55:47.386Z,129
2022-10-28T08:00:28.681Z,146
2022-10-28T08:05:10.988Z,168
2022-10-28T08:09:53.310Z,180
2022-10-28T08:14:35.490Z,213
2022-10-28T08:19:17.825Z,191
2022-10-28T08:24:00.125Z,208
2022-10-28T08:28:42.330Z,286
2022-10-28T08:33:24.633Z,348
2022-10-28T08:38:06.945Z,337
2022-10-28T08:42:49.182Z,348
2022-10-28T08:52:13.804Z,545
2022-10-28T09:01:38.316Z,540
2022-10-28T09:06:19.635Z,438
2022-10-28T09:11:01.947Z,838
2022-10-28T09:15:43.252Z,545
2022-10-28T09:20:25.466Z,388
2022-10-28T09:25:07.783Z,326
2022-10-28T09:29:50.017Z,376
2022-10-28T09:34:32.315Z,973
2022-10-28T09:39:14.617Z,1080
2022-10-28T09:43:56.839Z,1063
2022-10-28T09:48:39.156Z,1153
2022-10-28T09:53:21.458Z,1136
2022-10-28T09:58:03.696Z,1091
2022-10-28T10:07:28.295Z,1327
2022-10-28T10:12:10.508Z,1282
2022-10-28T10:16:51.823Z,1299
2022-10-28T10:21:34.138Z,725
2022-10-28T10:26:16.452Z,1293
2022-10-28T10:35:40.971Z,1350
2022-10-28T10:40:22.288Z,1513
2022-10-28T10:45:03.594Z,1501
2022-10-28T10:49:45.904Z,1462
2022-10-28T10:59:10.505Z,1445
2022-10-28T11:03:52.747Z,1344
2022-10-28T11:08:34.965Z,1378
2022-10-28T11:13:17.270Z,1428
2022-10-28T11:17:59.592Z,815
2022-10-28T11:27:24.116Z,922
2022-10-28T11:32:06.494Z,1856
2022-10-28T11:36:48.674Z,1850
2022-10-28T11:41:30.954Z,1833
2022-10-28T11:46:12.273Z,1721
2022-10-28T11:50:54.484Z,1552
2022-10-28T11:55:36.799Z,1518
2022-10-28T12:00:19.107Z,1231
2022-10-28T12:05:01.315Z,1715
2022-10-28T12:09:43.626Z,1659
2022-10-28T12:14:25.942Z,1726
2022-10-28T12:19:08.207Z,1687
2022-10-28T12:23:50.468Z,1428
2022-10-28T12:28:32.803Z,1125
2022-10-28T12:33:14.993Z,1305
2022-10-28T12:37:56.359Z,1400
2022-10-28T12:47:19.930Z,551
2022-10-28T12:52:02.251Z,1226
2022-10-28T12:56:44.461Z,1282
2022-10-28T13:01:26.757Z,1080
2022-10-28T13:10:51.287Z,1046
2022-10-28T13:15:33.640Z,1074
2022-10-28T13:20:15.913Z,1023
2022-10-28T13:24:58.119Z,759
2022-10-28T13:29:40.434Z,433
2022-10-28T13:34:22.777Z,680
2022-10-28T13:39:05.079Z,410
2022-10-28T13:43:46.268Z,461
2022-10-28T13:48:28.579Z,416
2022-10-28T13:53:10.888Z,551
2022-10-28T13:57:53.100Z,624
2022-10-28T14:02:35.502Z,309
2022-10-28T14:07:17.764Z,275
2022-10-28T14:11:59.975Z,286
2022-10-28T14:16:42.246Z,275
2022-10-28T14:21:24.557Z,258
2022-10-28T14:26:06.769Z,247
2022-10-28T14:30:48.091Z,247
2022-10-28T14:35:29.388Z,264
2022-10-28T14:40:11.697Z,225
2022-10-28T14:49:36.237Z,135
2022-10-28T14:54:18.535Z,123
2022-10-28T14:59:00.846Z,129
2022-10-28T15:03:43.056Z,140
2022-10-28T15:08:25.370Z,135
2022-10-28T15:13:07.707Z,135
2022-10-28T15:17:49.906Z,118
2022-10-28T15:22:32.200Z,90
2022-10-28T15:27:14.511Z,73
2022-10-28T15:41:21.353Z,39
2022-10-28T15:46:02.668Z,28
2022-10-28T15:50:43.971Z,22
2022-10-28T15:55:26.178Z,11
2022-10-28T16:00:08.489Z,5
2022-10-28T16:04:50.806Z,0
2022-10-28T16:09:33.022Z,0
2022-10-28T16:14:15.340Z,0
2022-10-28T16:18:57.632Z,0
2022-10-28T16:23:39.845Z,0
2022-10-28T16:28:22.158Z,0
2022-10-28T16:33:04.465Z,0
2022-10-28T16:37:45.786Z,0
2022-10-28T16:42:27.165Z,0
2022-10-28T16:47:09.301Z,0
2022-10-28T16:51:51.616Z,0
2022-10-28T16:56:33.919Z,0
2022-10-28T17:01:16.129Z,0
2022-10-28T17:05:58.437Z,0
2022-10-28T17:10:40.755Z,0
2022-10-28T17:15:22.983Z,0
2022-10-28T17:24:47.606Z,0
2022-10-28T17:29:29.890Z,0
2022-10-28T17:34:12.120Z,0
2022-10-28T17:38:54.422Z,0
2022-10-28T17:43:35.633Z,0
2022-10-28T17:48:17.987Z,0
2022-10-28T17:57:42.476Z,0
2022-10-28T18:02:24.776Z,0
2022-10-28T18:07:06.084Z,0
2022-10-28T18:11:47.397Z,0
2022-10-28T18:16:29.725Z,0
2022-10-28T18:21:11.915Z,0
2022-10-28T18:25:54.228Z,0
2022-10-28T18:30:36.540Z,0
2022-10-28T18:35:18.751Z,0
2022-10-28T18:40:01.068Z,0
2022-10-28T18:44:43.570Z,0
2022-10-28T18:49:25.593Z,0
2022-10-28T18:54:07.898Z,0
2022-10-28T18:58:50.211Z,0
2022-10-28T19:03:31.545Z,0
2022-10-28T19:08:12.827Z,0
2022-10-28T19:12:55.047Z,0
2022-10-28T19:17:37.379Z,0
2022-10-28T19:22:19.660Z,0
2022-10-28T19:27:01.877Z,0
2022-10-28T19:31:44.183Z,0
2022-10-28T19:36:26.558Z,0
2022-10-28T19:41:08.705Z,0
2022-10-28T19:45:51.047Z,0
2022-10-28T19:50:33.332Z,0
2022-10-28T19:55:15.540Z,0
2022-10-28T19:59:57.853Z,0
2022-10-28T20:04:40.171Z,0
2022-10-28T20:09:21.546Z,0
2022-10-28T20:14:03.713Z,0
2022-10-28T20:23:28.307Z,0
2022-10-28T20:28:10.538Z,0
2022-10-28T20:32:52.829Z,0
2022-10-28T20:46:59.660Z,0
2022-10-28T20:51:41.984Z,0
2022-10-28T20:56:23.336Z,0
2022-10-28T21:01:04.500Z,0
2022-10-28T21:05:46.808Z,0
2022-10-28T21:10:29.191Z,0
2022-10-28T21:15:11.338Z,0
2022-10-28T21:19:53.651Z,0
2022-10-28T21:24:35.959Z,0
2022-10-28T21:29:18.176Z,0
2022-10-28T21:34:00.518Z,0
2022-10-28T21:38:42.800Z,0
2022-10-28T21:43:25.013Z,0
2022-10-28T21:48:07.331Z,0
2022-10-28T21:52:49.637Z,0
2022-10-28T21:57:30.946Z,0
2022-10-28T22:02:12.262Z,0
2022-10-28T22:06:54.471Z,0
2022-10-28T22:11:36.781Z,0
2022-10-28T22:16:19.104Z,0
2022-10-28T22:21:01.316Z,0
2022-10-28T22:25:43.619Z,0
2022-10-28T22:30:25.932Z,0
2022-10-28T22:35:08.208Z,0
2022-10-28T22:39:50.474Z,0
2022-10-28T22:44:32.768Z,0
2022-10-28T22:49:14.977Z,0
2022-10-28T22:53:57.288Z,0
2022-10-28T22:58:39.602Z,0
2022-10-28T23:03:20.912Z,0
2022-10-28T23:08:03.126Z,0
2022-10-28T23:12:45.447Z,0
2022-10-28T23:17:27.757Z,0
2022-10-28T23:22:09.960Z,0
2022-10-28T23:26:52.282Z,0
2022-10-28T23:31:34.582Z,0
2022-10-28T23:36:16.803Z,0
2022-10-28T23:40:59.106Z,0
2022-10-28T23:45:40.418Z,0
2022-10-28T23:50:22.733Z,0
2022-10-28T23:55:04.940Z,0
2022-10-28T23:59:47.249Z,0
